Time;durP1;ratioP1;P1;durP2;ratioP2;P2;SDS_P1;SDS_P2;PMS_P1;PMS_P2;Temp;Humidity;BMP_temperature;BMP_pressure;BME280_temperature;BME280_humidity;BME280_pressure;Samples;Min_cycle;Max_cycle;Signal;HPM_P1;HPM_P2
2023/02/06 00:00:19;;;;;;;1.37;1.27;;;-4.10;97.30;;;;;;5013855;28;20203;-88
2023/02/06 00:02:44;;;;;;;2.37;2.17;;;-4.10;97.30;;;;;;5013801;28;20796;-87
2023/02/06 00:05:10;;;;;;;1.27;1.17;;;-4.10;97.30;;;;;;5011596;28;20469;-87
2023/02/06 00:07:35;;;;;;;5.30;1.67;;;-4.10;97.30;;;;;;5015059;28;20263;-87
2023/02/06 00:10:01;;;;;;;1.83;1.70;;;-4.10;97.30;;;;;;5012705;28;20203;-87
2023/02/06 00:12:26;;;;;;;2.03;1.90;;;-4.20;97.30;;;;;;5020822;28;20173;-87
2023/02/06 00:14:52;;;;;;;2.33;2.13;;;-4.20;97.30;;;;;;5012302;28;20196;-87
2023/02/06 00:17:17;;;;;;;3.10;2.90;;;-4.20;97.30;;;;;;5021745;28;20191;-88
2023/02/06 00:19:43;;;;;;;2.07;1.93;;;-4.20;97.30;;;;;;5019380;28;20176;-87
2023/02/06 00:22:09;;;;;;;3.37;2.97;;;-4.20;97.30;;;;;;5012348;28;20314;-87
2023/02/06 00:24:35;;;;;;;3.27;1.97;;;-4.30;97.30;;;;;;5012277;28;20200;-88
2023/02/06 00:27:00;;;;;;;3.57;3.17;;;-4.30;97.30;;;;;;5012074;28;20283;-87
2023/02/06 00:29:26;;;;;;;6.43;2.03;;;-4.40;97.30;;;;;;5012356;28;20842;-87
2023/02/06 00:31:51;;;;;;;2.90;2.40;;;-4.40;97.30;;;;;;5012256;28;20722;-87
2023/02/06 00:34:17;;;;;;;1.30;1.20;;;-4.30;97.30;;;;;;5013892;28;20214;-87
2023/02/06 00:36:42;;;;;;;1.50;1.40;;;-4.40;97.30;;;;;;5016050;28;20277;-88
2023/02/06 00:39:08;;;;;;;2.00;1.90;;;-4.40;97.30;;;;;;5008424;28;20185;-87
2023/02/06 00:41:33;;;;;;;2.77;2.57;;;-4.40;97.30;;;;;;5015817;28;20175;-87
2023/02/06 00:43:59;;;;;;;2.27;2.10;;;-4.40;97.30;;;;;;5016203;28;20275;-87
2023/02/06 00:46:24;;;;;;;1.47;1.37;;;-4.40;97.30;;;;;;5033616;28;20201;-87
2023/02/06 00:48:50;;;;;;;4.30;2.40;;;-4.50;97.30;;;;;;5016214;28;20176;-89
2023/02/06 00:51:15;;;;;;;3.07;2.40;;;-4.40;97.30;;;;;;5023199;28;20212;-88
2023/02/06 00:53:41;;;;;;;3.10;2.90;;;-4.40;97.30;;;;;;5023958;28;20152;-91
2023/02/06 00:56:06;;;;;;;1.83;1.70;;;-4.40;97.30;;;;;;5028639;28;20203;-88
2023/02/06 00:58:32;;;;;;;3.67;3.47;;;-4.40;97.30;;;;;;5023098;28;20589;-88
2023/02/06 01:00:57;;;;;;;2.87;2.67;;;-4.40;97.30;;;;;;5041114;28;20184;-91
2023/02/06 01:03:23;;;;;;;1.50;1.40;;;-4.40;97.30;;;;;;5042250;28;20176;-91
2023/02/06 01:05:48;;;;;;;1.73;1.63;;;-4.40;97.30;;;;;;5030331;28;20208;-88
2023/02/06 01:08:14;;;;;;;8.07;3.17;;;-4.30;97.30;;;;;;5034425;28;20180;-87
2023/02/06 01:10:41;;;;;;;3.83;2.47;;;-4.30;97.30;;;;;;5032916;28;20223;-87
2023/02/06 01:13:07;;;;;;;3.43;3.23;;;-4.30;97.30;;;;;;5015981;28;20249;-88
2023/02/06 01:15:32;;;;;;;1.90;1.77;;;-4.30;97.30;;;;;;5015429;28;21036;-88
2023/02/06 01:17:58;;;;;;;2.93;2.73;;;-4.20;97.30;;;;;;5015458;28;20192;-87
2023/02/06 01:20:23;;;;;;;1.53;1.43;;;-4.20;97.30;;;;;;5015470;28;20706;-88
2023/02/06 01:22:49;;;;;;;4.33;2.43;;;-4.20;97.30;;;;;;5015334;28;20188;-87
2023/02/06 01:25:14;;;;;;;2.53;2.37;;;-4.20;97.30;;;;;;5020457;28;20226;-87
2023/02/06 01:27:40;;;;;;;1.90;1.80;;;-4.20;97.30;;;;;;5023046;28;20214;-87
2023/02/06 01:30:06;;;;;;;2.73;2.47;;;-4.20;97.30;;;;;;5015571;28;20248;-87
2023/02/06 01:32:36;;;;;;;1.97;1.87;;;-4.20;97.30;;;;;;5014972;28;20707;-87
2023/02/06 01:35:02;;;;;;;2.97;2.73;;;-4.20;97.30;;;;;;5020828;28;20455;-87
2023/02/06 01:37:29;;;;;;;1.93;1.83;;;-4.20;97.30;;;;;;5013836;28;20470;-87
2023/02/06 01:39:54;;;;;;;1.63;1.53;;;-4.30;97.30;;;;;;5014942;28;20517;-87
2023/02/06 01:42:20;;;;;;;2.27;2.07;;;-4.20;97.30;;;;;;5014430;28;20870;-87
2023/02/06 01:44:45;;;;;;;2.00;1.30;;;-4.30;97.30;;;;;;5020597;28;20203;-87
2023/02/06 01:47:11;;;;;;;1.57;1.47;;;-4.30;97.30;;;;;;5018608;28;20180;-87
2023/02/06 01:49:49;;;;;;;3.30;3.10;;;-4.30;97.30;;;;;;5014786;28;20258;-87
2023/02/06 01:52:22;;;;;;;4.40;2.60;;;-4.30;97.30;;;;;;5015260;28;20187;-87
2023/02/06 01:54:52;;;;;;;5.70;3.07;;;-4.30;97.30;;;;;;5021703;28;20435;-87
2023/02/06 01:57:19;;;;;;;4.47;2.07;;;-4.30;97.30;;;;;;5014587;28;20436;-87
2023/02/06 01:59:51;;;;;;;1.63;1.53;;;-4.40;97.30;;;;;;5014598;28;20933;-87
2023/02/06 02:02:16;;;;;;;2.03;1.63;;;-4.40;97.30;;;;;;5011281;28;20428;-87
2023/02/06 02:04:43;;;;;;;1.53;1.43;;;-4.40;97.30;;;;;;5022787;28;20530;-87
2023/02/06 02:07:39;;;;;;;1.30;1.20;;;-4.40;97.30;;;;;;5023052;28;20626;-87
2023/02/06 02:10:05;;;;;;;2.50;2.30;;;-4.40;97.30;;;;;;5014600;28;20470;-87
2023/02/06 02:12:30;;;;;;;4.60;2.83;;;-4.40;97.30;;;;;;5016737;28;20430;-87
2023/02/06 02:14:56;;;;;;;5.50;1.87;;;-4.40;97.30;;;;;;5015397;28;20748;-88
2023/02/06 02:17:51;;;;;;;3.43;3.23;;;-4.40;97.30;;;;;;5014821;28;20584;-87
2023/02/06 02:20:16;;;;;;;2.77;2.03;;;-4.40;97.30;;;;;;5025827;28;20423;-87
2023/02/06 02:22:59;;;;;;;15.57;3.37;;;-4.40;97.30;;;;;;5014284;28;20774;-87
2023/02/06 02:25:55;;;;;;;1.40;1.30;;;-4.50;97.30;;;;;;5014385;28;20234;-87
2023/02/06 02:28:41;;;;;;;1.97;1.87;;;-4.50;97.30;;;;;;5048499;28;20509;-88
2023/02/06 02:31:32;;;;;;;1.87;1.77;;;-4.50;97.30;;;;;;5014102;28;20520;-88
2023/02/06 02:34:00;;;;;;;2.07;1.87;;;-4.60;97.30;;;;;;5008455;28;20430;-87
2023/02/06 02:36:41;;;;;;;1.67;1.57;;;-4.60;97.30;;;;;;5031578;28;20436;-87
2023/02/06 02:39:30;;;;;;;2.50;2.30;;;-4.60;97.30;;;;;;5013837;28;20955;-89
2023/02/06 02:41:58;;;;;;;2.40;2.20;;;-4.60;97.30;;;;;;5014224;28;20468;-87
2023/02/06 02:44:44;;;;;;;1.43;1.33;;;-4.60;97.30;;;;;;5020924;28;20419;-86
2023/02/06 02:47:13;;;;;;;3.93;3.77;;;-4.60;97.30;;;;;;5026598;28;20426;-87
2023/02/06 02:49:42;;;;;;;2.13;1.97;;;-4.60;97.30;;;;;;5021694;28;20462;-87
2023/02/06 02:52:08;;;;;;;1.83;1.73;;;-4.60;97.30;;;;;;5013987;28;20426;-88
2023/02/06 02:54:33;;;;;;;2.83;2.63;;;-4.60;97.30;;;;;;5016024;28;20430;-87
2023/02/06 02:57:08;;;;;;;1.67;1.57;;;-4.70;97.30;;;;;;5036723;28;20250;-87
2023/02/06 02:59:37;;;;;;;3.23;3.00;;;-4.70;97.30;;;;;;5020993;28;20191;-87
2023/02/06 03:02:21;;;;;;;2.07;1.93;;;-4.70;97.30;;;;;;5013726;28;20421;-87
2023/02/06 03:04:51;;;;;;;1.73;1.30;;;-4.70;97.30;;;;;;5006205;28;20486;-87
2023/02/06 03:07:35;;;;;;;2.43;2.23;;;-4.70;97.30;;;;;;5031300;28;20439;-87
2023/02/06 03:10:30;;;;;;;1.40;1.30;;;-4.70;97.30;;;;;;5018680;28;20528;-87
2023/02/06 03:13:09;;;;;;;2.70;2.50;;;-4.70;97.30;;;;;;5039411;28;20426;-87
2023/02/06 03:15:59;;;;;;;2.03;1.90;;;-4.70;97.30;;;;;;5013307;28;20447;-87
2023/02/06 03:18:40;;;;;;;1.60;1.50;;;-4.70;97.30;;;;;;5014055;28;20419;-87
2023/02/06 03:21:10;;;;;;;1.93;1.80;;;-4.70;97.30;;;;;;5018155;28;20493;-87
2023/02/06 03:23:42;;;;;;;7.03;2.47;;;-4.80;97.30;;;;;;5012991;28;20899;-87
2023/02/06 03:26:14;;;;;;;2.33;2.13;;;-4.80;97.30;;;;;;5012303;28;21013;-88
2023/02/06 03:28:47;;;;;;;1.83;1.73;;;-4.70;97.30;;;;;;5014386;28;20967;-88
2023/02/06 03:31:19;;;;;;;2.87;1.97;;;-4.70;97.30;;;;;;5024562;28;20474;-87
2023/02/06 03:33:53;;;;;;;1.33;1.23;;;-4.70;97.30;;;;;;5012908;28;20426;-88
2023/02/06 03:36:19;;;;;;;1.40;1.30;;;-4.70;97.30;;;;;;5022457;28;20961;-85
2023/02/06 03:38:46;;;;;;;9.47;3.23;;;-4.70;97.30;;;;;;5024568;28;20421;-87
2023/02/06 03:41:14;;;;;;;2.40;2.20;;;-4.70;97.30;;;;;;5017220;28;20184;-87
2023/02/06 03:43:43;;;;;;;3.27;2.70;;;-4.70;97.30;;;;;;5012536;28;20427;-87
2023/02/06 03:46:11;;;;;;;1.30;1.20;;;-4.70;97.30;;;;;;5012553;28;20526;-87
2023/02/06 03:48:41;;;;;;;2.07;1.93;;;-4.60;97.30;;;;;;5020840;28;20429;-87
2023/02/06 03:51:12;;;;;;;1.60;1.50;;;-4.60;97.30;;;;;;5012599;28;20467;-87
2023/02/06 03:53:38;;;;;;;3.80;2.83;;;-4.50;97.30;;;;;;5038845;28;20786;-88
2023/02/06 03:56:12;;;;;;;1.67;1.57;;;-4.50;97.30;;;;;;5012903;28;20530;-88
2023/02/06 03:58:37;;;;;;;4.30;3.13;;;-4.50;97.30;;;;;;5011647;28;20428;-87
2023/02/06 04:01:04;;;;;;;2.30;2.17;;;-4.40;97.30;;;;;;5011891;28;20446;-87
2023/02/06 04:03:31;;;;;;;3.53;3.33;;;-4.40;97.30;;;;;;5011236;28;20654;-87
2023/02/06 04:05:56;;;;;;;2.73;2.00;;;-4.30;97.30;;;;;;5012334;28;20478;-87
2023/02/06 04:08:22;;;;;;;5.17;2.70;;;-4.30;97.30;;;;;;5012384;28;20454;-87
2023/02/06 04:10:47;;;;;;;1.10;1.00;;;-4.20;97.30;;;;;;5012424;28;20317;-87
2023/02/06 04:13:13;;;;;;;1.30;1.20;;;-4.20;97.30;;;;;;5021345;28;20185;-87
2023/02/06 04:15:38;;;;;;;3.90;1.93;;;-4.20;97.30;;;;;;5038474;28;20208;-87
2023/02/06 04:18:04;;;;;;;2.10;1.67;;;-4.10;97.30;;;;;;5015451;28;20190;-87
2023/02/06 04:20:29;;;;;;;2.87;1.67;;;-4.10;97.30;;;;;;5039431;28;20636;-87
2023/02/06 04:22:55;;;;;;;1.30;1.20;;;-4.00;97.30;;;;;;5019344;28;20187;-87
2023/02/06 04:25:21;;;;;;;3.33;2.20;;;-4.00;97.30;;;;;;5012248;28;20267;-85
2023/02/06 04:27:46;;;;;;;1.10;1.00;;;-3.90;97.30;;;;;;5020372;28;20473;-86
2023/02/06 04:30:12;;;;;;;1.30;1.20;;;-3.90;97.30;;;;;;5012444;28;20582;-87
2023/02/06 04:32:38;;;;;;;3.10;2.63;;;-3.90;97.30;;;;;;5012297;28;20180;-87
2023/02/06 04:35:03;;;;;;;9.07;2.03;;;-3.80;97.30;;;;;;5018639;28;20250;-87
2023/02/06 04:37:29;;;;;;;2.80;2.60;;;-3.80;97.30;;;;;;5046591;28;20180;-89
2023/02/06 04:39:54;;;;;;;2.70;2.03;;;-3.80;97.30;;;;;;5013550;28;20449;-88
2023/02/06 04:42:20;;;;;;;1.40;1.30;;;-3.70;97.30;;;;;;5023849;28;20200;-88
2023/02/06 04:44:45;;;;;;;1.77;1.63;;;-3.70;97.30;;;;;;5020201;28;20204;-89
2023/02/06 04:47:11;;;;;;;5.03;2.57;;;-3.60;97.30;;;;;;5012303;28;20226;-89
2023/02/06 04:49:36;;;;;;;1.57;1.47;;;-3.60;97.30;;;;;;5038359;28;20239;-88
2023/02/06 04:52:02;;;;;;;1.77;1.67;;;-3.60;97.30;;;;;;5012169;28;20673;-89
2023/02/06 04:54:28;;;;;;;7.20;2.73;;;-3.60;97.30;;;;;;5013302;28;20247;-89
2023/02/06 04:56:53;;;;;;;2.47;2.27;;;-3.60;97.30;;;;;;5037629;28;20563;-88
2023/02/06 04:59:19;;;;;;;2.90;2.70;;;-3.60;97.30;;;;;;5022595;28;20197;-88
2023/02/06 05:01:44;;;;;;;3.33;3.13;;;-3.60;97.30;;;;;;5016210;28;20180;-88
2023/02/06 05:04:10;;;;;;;2.60;2.27;;;-3.50;97.30;;;;;;5014544;28;20185;-88
2023/02/06 05:06:35;;;;;;;3.47;3.00;;;-3.50;97.30;;;;;;5010978;28;20228;-88
2023/02/06 05:09:04;;;;;;;3.87;3.67;;;-3.50;97.30;;;;;;5041725;28;20262;-89
2023/02/06 05:11:29;;;;;;;3.37;2.60;;;-3.40;97.30;;;;;;5014948;28;20264;-87
2023/02/06 05:13:55;;;;;;;2.30;2.10;;;-3.40;97.30;;;;;;5012794;28;20502;-87
2023/02/06 05:16:20;;;;;;;2.83;2.70;;;-3.40;97.30;;;;;;5012524;28;20220;-88
2023/02/06 05:18:46;;;;;;;3.87;3.67;;;-3.40;97.30;;;;;;5038711;28;20223;-87
2023/02/06 05:21:13;;;;;;;3.97;1.57;;;-3.30;97.30;;;;;;5014929;28;20231;-87
2023/02/06 05:23:38;;;;;;;7.93;3.83;;;-3.30;97.30;;;;;;5039424;28;20199;-87
2023/02/06 05:26:04;;;;;;;2.47;2.23;;;-3.30;97.30;;;;;;5043760;28;20491;-87
2023/02/06 05:28:32;;;;;;;5.10;3.10;;;-3.20;97.30;;;;;;5024812;28;20191;-87
2023/02/06 05:31:01;;;;;;;2.70;2.50;;;-3.20;97.30;;;;;;5040036;28;20204;-87
2023/02/06 05:33:26;;;;;;;1.73;1.63;;;-3.10;97.30;;;;;;5029645;28;20480;-87
2023/02/06 05:35:52;;;;;;;3.53;3.37;;;-3.10;97.30;;;;;;5051445;28;21115;-87
2023/02/06 05:38:18;;;;;;;2.60;2.40;;;-3.10;97.30;;;;;;5037865;28;20191;-88
2023/02/06 05:40:44;;;;;;;2.40;2.20;;;-3.00;97.30;;;;;;5016310;28;20185;-87
2023/02/06 05:43:09;;;;;;;1.77;1.60;;;-3.00;97.30;;;;;;5018530;28;20777;-87
2023/02/06 05:45:35;;;;;;;1.47;1.37;;;-3.00;97.30;;;;;;5027101;28;20530;-88
2023/02/06 05:48:01;;;;;;;1.80;1.70;;;-2.90;97.30;;;;;;5019898;28;20262;-87
2023/02/06 05:50:26;;;;;;;3.97;3.17;;;-2.90;97.30;;;;;;5015351;28;20205;-87
2023/02/06 05:52:52;;;;;;;1.97;1.87;;;-2.90;97.30;;;;;;5020237;28;20180;-86
2023/02/06 05:55:17;;;;;;;1.83;1.73;;;-2.90;97.30;;;;;;5025018;28;20211;-87
2023/02/06 05:57:43;;;;;;;3.63;3.43;;;-2.90;97.30;;;;;;5024247;28;20173;-88
2023/02/06 06:00:10;;;;;;;10.23;3.17;;;-2.80;97.30;;;;;;5023160;28;20176;-88
2023/02/06 06:02:36;;;;;;;4.10;2.80;;;-2.80;97.30;;;;;;5028255;28;20225;-87
2023/02/06 06:05:02;;;;;;;9.17;2.33;;;-2.70;97.30;;;;;;5024415;28;20455;-87
2023/02/06 06:07:28;;;;;;;9.60;2.47;;;-2.70;97.30;;;;;;5026722;28;20211;-87
2023/02/06 06:09:53;;;;;;;2.43;2.23;;;-2.60;97.30;;;;;;5056595;28;20466;-87
2023/02/06 06:12:19;;;;;;;2.57;2.37;;;-2.60;97.30;;;;;;5041029;28;20184;-88
2023/02/06 06:14:44;;;;;;;3.67;3.47;;;-2.60;97.30;;;;;;5049003;28;21176;-87
2023/02/06 06:17:10;;;;;;;2.60;2.00;;;-2.50;97.30;;;;;;5028776;28;20188;-87
2023/02/06 06:19:35;;;;;;;8.63;4.70;;;-2.50;97.30;;;;;;5032818;28;20193;-88
2023/02/06 06:22:01;;;;;;;5.33;4.20;;;-2.50;97.30;;;;;;5014920;28;20189;-86
2023/02/06 06:24:27;;;;;;;2.70;2.50;;;-2.40;97.30;;;;;;5014959;28;20314;-83
2023/02/06 06:26:52;;;;;;;4.03;3.07;;;-2.40;97.30;;;;;;5014511;28;20706;-85
2023/02/06 06:29:18;;;;;;;4.60;4.30;;;-2.40;97.30;;;;;;5032489;28;20188;-86
2023/02/06 06:31:43;;;;;;;2.80;2.60;;;-2.30;97.30;;;;;;5016902;28;20173;-86
2023/02/06 06:34:09;;;;;;;5.40;4.80;;;-2.30;97.30;;;;;;5020503;28;20643;-86
2023/02/06 06:36:34;;;;;;;6.83;2.30;;;-2.30;97.30;;;;;;5016687;28;20219;-87
2023/02/06 06:39:00;;;;;;;4.97;3.80;;;-2.30;97.30;;;;;;5021270;28;20238;-86
2023/02/06 06:41:25;;;;;;;4.53;3.43;;;-2.20;97.30;;;;;;5014446;28;20184;-86
2023/02/06 06:43:54;;;;;;;3.17;2.63;;;-2.20;97.30;;;;;;5031037;28;20187;-86
2023/02/06 06:46:20;;;;;;;2.00;1.90;;;-2.20;97.30;;;;;;5014090;28;20209;-86
2023/02/06 06:48:46;;;;;;;5.47;3.37;;;-2.20;97.30;;;;;;5016658;28;21083;-86
2023/02/06 06:51:11;;;;;;;2.37;2.17;;;-2.20;97.30;;;;;;5019752;28;20250;-86
2023/02/06 06:53:38;;;;;;;1.60;1.50;;;-2.20;97.30;;;;;;5015427;28;20217;-85
2023/02/06 06:56:06;;;;;;;2.37;2.17;;;-2.20;97.30;;;;;;5020533;28;20284;-87
2023/02/06 06:58:32;;;;;;;2.47;1.93;;;-2.10;97.30;;;;;;5014074;28;20447;-86
2023/02/06 07:00:58;;;;;;;11.57;3.13;;;-2.10;97.30;;;;;;5014290;28;20441;-85
2023/02/06 07:03:23;;;;;;;3.43;2.80;;;-2.10;97.30;;;;;;5014694;28;20420;-86
2023/02/06 07:05:49;;;;;;;3.70;3.00;;;-2.10;97.30;;;;;;5014885;28;20236;-86
2023/02/06 07:08:14;;;;;;;1.83;1.73;;;-2.00;97.30;;;;;;5014235;28;20180;-86
2023/02/06 07:10:39;;;;;;;5.63;2.97;;;-2.00;97.30;;;;;;5020656;28;20215;-86
2023/02/06 07:13:05;;;;;;;1.53;1.40;;;-2.00;97.30;;;;;;5014658;28;20262;-86
2023/02/06 07:15:31;;;;;;;3.03;2.83;;;-2.00;97.30;;;;;;5017884;28;20708;-85
2023/02/06 07:17:56;;;;;;;3.00;2.80;;;-1.90;97.30;;;;;;5034429;28;20203;-86
2023/02/06 07:20:22;;;;;;;4.70;3.50;;;-1.90;97.30;;;;;;5039335;28;20178;-87
2023/02/06 07:22:49;;;;;;;8.20;2.70;;;-1.90;97.30;;;;;;5043879;28;20231;-86
2023/02/06 07:25:19;;;;;;;16.53;3.77;;;-1.80;97.30;;;;;;5035801;28;20243;-86
2023/02/06 07:27:44;;;;;;;4.83;4.53;;;-1.80;97.30;;;;;;5039135;28;20442;-86
2023/02/06 07:30:11;;;;;;;4.80;4.50;;;-1.80;97.30;;;;;;5035653;28;20837;-86
2023/02/06 07:32:36;;;;;;;11.10;4.83;;;-1.70;97.30;;;;;;5023529;28;20423;-86
2023/02/06 07:35:02;;;;;;;2.70;2.50;;;-1.60;97.30;;;;;;5024091;28;20458;-86
2023/02/06 07:37:28;;;;;;;3.10;2.90;;;-1.50;97.30;;;;;;5013870;28;20181;-84
2023/02/06 07:39:53;;;;;;;6.23;4.93;;;-1.40;97.30;;;;;;5017356;28;20440;-86
2023/02/06 07:42:19;;;;;;;3.90;3.70;;;-1.40;97.30;;;;;;5030510;28;20185;-85
2023/02/06 07:44:44;;;;;;;7.00;3.30;;;-1.30;97.30;;;;;;5017024;28;20346;-86
2023/02/06 07:47:10;;;;;;;9.53;3.97;;;-1.30;97.30;;;;;;5019597;28;20200;-86
2023/02/06 07:49:35;;;;;;;2.80;2.60;;;-1.30;97.30;;;;;;5011434;28;20204;-86
2023/02/06 07:52:01;;;;;;;4.90;3.80;;;-1.30;97.30;;;;;;5013502;28;20212;-86
2023/02/06 07:54:26;;;;;;;3.63;2.93;;;-1.30;97.30;;;;;;5013392;28;20172;-85
2023/02/06 07:56:52;;;;;;;6.43;5.40;;;-1.30;97.30;;;;;;5018086;28;20182;-86
2023/02/06 07:59:17;;;;;;;3.37;3.17;;;-1.20;97.30;;;;;;5033472;28;20176;-86
2023/02/06 08:01:43;;;;;;;5.10;4.37;;;-1.10;97.30;;;;;;5023497;28;20187;-86
2023/02/06 08:04:10;;;;;;;2.60;2.43;;;-1.00;97.30;;;;;;5020060;28;20203;-86
2023/02/06 08:06:38;;;;;;;4.53;4.00;;;-0.80;97.30;;;;;;5013664;28;20211;-86
2023/02/06 08:09:04;;;;;;;9.30;5.87;;;-0.80;97.30;;;;;;5042777;28;20418;-86
2023/02/06 08:11:30;;;;;;;4.53;3.60;;;-0.70;97.30;;;;;;5042554;28;20480;-86
2023/02/06 08:13:56;;;;;;;6.10;3.93;;;-0.60;97.30;;;;;;5012621;28;20522;-86
2023/02/06 08:16:23;;;;;;;4.77;4.47;;;-0.60;97.30;;;;;;5013198;28;20398;-86
2023/02/06 08:18:48;;;;;;;3.00;2.80;;;-0.50;97.30;;;;;;5013163;28;20188;-86
2023/02/06 08:21:17;;;;;;;5.40;4.47;;;-0.40;97.30;;;;;;5013148;28;20419;-86
2023/02/06 08:23:43;;;;;;;16.10;6.37;;;-0.40;97.30;;;;;;5031051;28;20527;-86
2023/02/06 08:26:14;;;;;;;7.37;4.83;;;-0.30;97.30;;;;;;5013969;28;20485;-86
2023/02/06 08:28:42;;;;;;;9.13;5.30;;;-0.30;97.30;;;;;;5015269;28;20188;-86
2023/02/06 08:31:13;;;;;;;5.67;4.97;;;-0.30;97.30;;;;;;5013421;28;20562;-86
2023/02/06 08:33:39;;;;;;;5.67;3.53;;;-0.30;97.30;;;;;;5016657;28;20429;-86
2023/02/06 08:36:06;;;;;;;23.17;7.03;;;-0.30;97.30;;;;;;5018616;28;20438;-86
2023/02/06 08:38:31;;;;;;;5.40;3.33;;;-0.20;97.30;;;;;;5018291;28;20423;-87
2023/02/06 08:40:57;;;;;;;4.93;3.17;;;-0.20;97.30;;;;;;5014493;28;20474;-86
2023/02/06 08:43:22;;;;;;;17.70;7.10;;;-0.10;97.30;;;;;;5018245;28;20567;-87
2023/02/06 08:45:52;;;;;;;11.30;5.77;;;-0.10;97.30;;;;;;5013996;28;20212;-86
2023/02/06 08:48:18;;;;;;;6.93;4.40;;;0.00;97.30;;;;;;5012770;28;20184;-86
2023/02/06 08:50:43;;;;;;;3.60;3.40;;;0.00;97.30;;;;;;5012913;28;20989;-86
2023/02/06 08:53:10;;;;;;;10.30;4.60;;;0.00;97.30;;;;;;5031056;28;20211;-86
2023/02/06 08:55:35;;;;;;;2.97;2.77;;;0.10;97.30;;;;;;5032859;28;20332;-86
2023/02/06 08:58:01;;;;;;;7.40;4.90;;;0.10;97.30;;;;;;5034282;28;20515;-86
2023/02/06 09:00:26;;;;;;;12.27;6.20;;;0.10;97.30;;;;;;5017148;28;20214;-86
2023/02/06 09:02:53;;;;;;;7.73;4.87;;;0.20;97.30;;;;;;5018858;28;20425;-86
2023/02/06 09:05:20;;;;;;;8.20;5.30;;;0.20;97.30;;;;;;5016425;28;20212;-87
2023/02/06 09:07:45;;;;;;;8.73;5.70;;;0.20;97.30;;;;;;5016770;28;20411;-86
2023/02/06 09:10:11;;;;;;;3.10;2.90;;;0.30;97.30;;;;;;5016768;28;20454;-87
2023/02/06 09:12:37;;;;;;;8.57;4.23;;;0.30;97.30;;;;;;5018533;28;20615;-86
2023/02/06 09:15:03;;;;;;;7.90;3.30;;;0.30;97.30;;;;;;5016674;28;20471;-86
2023/02/06 09:17:30;;;;;;;6.00;4.33;;;0.40;97.30;;;;;;5015966;28;20204;-87
2023/02/06 09:19:56;;;;;;;5.13;4.13;;;0.40;97.30;;;;;;5016448;28;20972;-87
2023/02/06 09:22:22;;;;;;;18.47;6.03;;;0.40;97.30;;;;;;5016446;28;20778;-86
2023/02/06 09:24:47;;;;;;;4.53;3.27;;;0.40;97.30;;;;;;5015844;28;20446;-86
2023/02/06 09:27:14;;;;;;;2.60;2.23;;;0.50;97.30;;;;;;5033833;28;20191;-87
2023/02/06 09:29:39;;;;;;;4.50;3.67;;;0.50;97.30;;;;;;5015732;28;20208;-87
2023/02/06 09:32:05;;;;;;;19.93;4.80;;;0.50;97.30;;;;;;5033949;28;20422;-87
2023/02/06 09:34:30;;;;;;;13.63;7.63;;;0.50;97.30;;;;;;5015766;28;20183;-85
2023/02/06 09:36:56;;;;;;;3.87;3.67;;;0.50;97.30;;;;;;5015897;28;20578;-87
2023/02/06 09:39:22;;;;;;;4.47;3.77;;;0.60;97.30;;;;;;5033917;28;20197;-87
2023/02/06 09:41:58;;;;;;;10.47;6.70;;;0.60;97.30;;;;;;5016204;28;20183;-87
2023/02/06 09:44:31;;;;;;;8.03;6.17;;;0.60;97.30;;;;;;5015475;28;20424;-85
2023/02/06 09:47:15;;;;;;;5.87;5.63;;;0.60;97.30;;;;;;5020762;28;20428;-87
2023/02/06 09:49:49;;;;;;;5.70;4.00;;;0.70;97.30;;;;;;5020573;28;20497;-86
2023/02/06 09:52:27;;;;;;;6.07;2.60;;;0.70;97.30;;;;;;5021009;28;20444;-87
2023/02/06 09:55:18;;;;;;;4.37;3.60;;;0.70;97.30;;;;;;5020500;28;20446;-87
2023/02/06 09:57:47;;;;;;;3.33;3.13;;;0.70;97.30;;;;;;5016787;28;20423;-88
2023/02/06 10:00:41;;;;;;;4.40;2.70;;;0.70;97.30;;;;;;5015796;28;20919;-87
2023/02/06 10:03:32;;;;;;;4.70;3.20;;;0.80;97.30;;;;;;5015410;28;20426;-88
2023/02/06 10:06:07;;;;;;;2.80;2.60;;;0.80;97.30;;;;;;5014818;28;20432;-87
2023/02/06 10:09:09;;;;;;;13.17;5.33;;;0.80;97.30;;;;;;5015161;28;20422;-87
2023/02/06 10:11:43;;;;;;;4.87;4.57;;;0.80;97.30;;;;;;5015741;28;20464;-87
2023/02/06 10:14:22;;;;;;;8.43;5.40;;;0.90;97.30;;;;;;5008645;28;20416;-87
2023/02/06 10:16:59;;;;;;;8.00;5.07;;;0.90;97.30;;;;;;5014885;28;20530;-88
2023/02/06 10:19:48;;;;;;;4.07;3.87;;;0.90;97.30;;;;;;5015207;28;20422;-87
2023/02/06 10:22:28;;;;;;;2.67;2.47;;;0.90;97.30;;;;;;5014397;28;20937;-88
2023/02/06 10:25:10;;;;;;;18.37;4.17;;;0.90;97.30;;;;;;5014259;28;20485;-88
2023/02/06 10:27:39;;;;;;;8.17;4.50;;;0.90;97.30;;;;;;5015388;28;20478;-88
2023/02/06 10:30:05;;;;;;;9.77;6.53;;;0.90;97.30;;;;;;5007179;28;20467;-88
2023/02/06 10:32:43;;;;;;;28.97;4.60;;;0.90;97.30;;;;;;5014741;28;20423;-88
2023/02/06 10:35:30;;;;;;;3.27;2.93;;;0.90;97.30;;;;;;5011731;28;20196;-87
2023/02/06 10:38:14;;;;;;;6.10;3.53;;;0.90;97.30;;;;;;5014859;28;20445;-88
2023/02/06 10:40:48;;;;;;;2.97;2.77;;;0.90;97.30;;;;;;5014477;28;20423;-87
2023/02/06 10:43:22;;;;;;;3.40;3.23;;;0.90;97.30;;;;;;5015061;28;20933;-89
2023/02/06 10:46:04;;;;;;;4.57;3.67;;;0.90;97.30;;;;;;5014310;28;21041;-88
2023/02/06 10:48:35;;;;;;;9.77;5.63;;;0.90;97.30;;;;;;5032466;28;20433;-88
2023/02/06 10:51:17;;;;;;;5.70;3.13;;;1.00;97.30;;;;;;5017735;28;20496;-88
2023/02/06 10:53:49;;;;;;;3.23;3.03;;;1.00;97.30;;;;;;5025537;28;20838;-88
2023/02/06 10:56:17;;;;;;;5.43;3.93;;;1.00;97.30;;;;;;5014412;28;20477;-88
2023/02/06 10:58:56;;;;;;;3.03;2.83;;;1.00;97.30;;;;;;5014851;28;20450;-88
2023/02/06 11:01:24;;;;;;;3.10;2.60;;;1.00;97.30;;;;;;5043963;28;20871;-88
2023/02/06 11:03:57;;;;;;;10.10;3.23;;;1.00;97.30;;;;;;5043545;28;20425;-88
2023/02/06 11:06:26;;;;;;;5.90;2.80;;;1.00;97.30;;;;;;5033945;28;20446;-88
2023/02/06 11:08:52;;;;;;;11.40;4.23;;;1.00;97.30;;;;;;5022814;28;20419;-88
2023/02/06 11:11:30;;;;;;;3.33;2.23;;;1.00;97.30;;;;;;5022389;28;21000;-88
2023/02/06 11:14:21;;;;;;;6.70;4.00;;;1.10;97.30;;;;;;5031833;28;20593;-89
2023/02/06 11:16:47;;;;;;;3.43;3.23;;;1.10;97.30;;;;;;5016535;28;20440;-88
2023/02/06 11:19:26;;;;;;;3.93;3.73;;;1.10;97.30;;;;;;5013320;28;20463;-88
2023/02/06 11:21:55;;;;;;;5.53;2.20;;;1.10;97.30;;;;;;5014003;28;20509;-88
2023/02/06 11:24:23;;;;;;;4.83;3.30;;;1.10;97.30;;;;;;5014111;28;20424;-88
2023/02/06 11:26:54;;;;;;;4.40;3.97;;;1.10;97.30;;;;;;5013857;28;20458;-88
2023/02/06 11:29:23;;;;;;;4.23;3.33;;;1.10;97.30;;;;;;5028286;28;20506;-88
2023/02/06 11:31:58;;;;;;;4.90;2.67;;;1.10;97.30;;;;;;5013858;28;20423;-88
2023/02/06 11:34:34;;;;;;;3.03;2.70;;;1.10;97.30;;;;;;5024519;28;20437;-88
2023/02/06 11:37:28;;;;;;;3.33;3.13;;;1.10;97.30;;;;;;5030875;28;20426;-88
2023/02/06 11:40:15;;;;;;;3.63;2.30;;;1.10;97.30;;;;;;5014045;28;20790;-88
2023/02/06 11:42:41;;;;;;;3.10;2.60;;;1.20;97.30;;;;;;5014495;28;20446;-88
2023/02/06 11:45:24;;;;;;;9.03;4.80;;;1.20;97.30;;;;;;5008392;28;21004;-88
2023/02/06 11:47:50;;;;;;;7.23;3.53;;;1.20;97.30;;;;;;5016961;28;20180;-88
2023/02/06 11:50:24;;;;;;;4.40;3.70;;;1.20;97.30;;;;;;5029066;28;20462;-88
2023/02/06 11:52:56;;;;;;;2.13;1.97;;;1.20;97.30;;;;;;5014706;28;20271;-88
2023/02/06 11:55:30;;;;;;;13.03;3.50;;;1.20;97.30;;;;;;5027554;28;20438;-88
2023/02/06 11:58:13;;;;;;;9.13;3.53;;;1.20;97.30;;;;;;5015840;28;20825;-89
2023/02/06 12:00:57;;;;;;;4.33;2.63;;;1.20;97.30;;;;;;5022002;28;20427;-88
2023/02/06 12:03:25;;;;;;;2.87;2.73;;;1.20;97.30;;;;;;5007519;28;20784;-88
2023/02/06 12:05:52;;;;;;;6.07;4.37;;;1.20;97.30;;;;;;5013294;28;20439;-88
2023/02/06 12:08:20;;;;;;;2.13;1.97;;;1.20;97.30;;;;;;5013972;28;20535;-87
2023/02/06 12:11:10;;;;;;;3.03;2.30;;;1.20;97.30;;;;;;5013005;28;20621;-88
2023/02/06 12:13:44;;;;;;;7.03;3.50;;;1.20;97.30;;;;;;5022559;28;20834;-88
2023/02/06 12:16:13;;;;;;;2.77;1.63;;;1.30;97.30;;;;;;5015519;28;20433;-88
2023/02/06 12:18:42;;;;;;;3.03;2.83;;;1.30;97.30;;;;;;5018137;28;20476;-89
2023/02/06 12:21:39;;;;;;;3.70;2.50;;;1.30;97.30;;;;;;5029788;28;20442;-89
2023/02/06 12:24:27;;;;;;;2.37;2.17;;;1.30;97.30;;;;;;5026551;28;20799;-88
2023/02/06 12:26:59;;;;;;;4.63;3.53;;;1.30;97.30;;;;;;5020285;28;20481;-88
2023/02/06 12:29:40;;;;;;;4.93;3.47;;;1.40;97.30;;;;;;5020606;28;20484;-87
2023/02/06 12:32:15;;;;;;;4.60;3.30;;;1.40;97.30;;;;;;5017736;28;20514;-88
2023/02/06 12:34:52;;;;;;;2.33;2.13;;;1.40;97.30;;;;;;5021594;28;20455;-87
2023/02/06 12:37:47;;;;;;;5.03;2.33;;;1.40;97.30;;;;;;5010795;28;20446;-88
2023/02/06 12:40:47;;;;;;;6.33;4.33;;;1.40;97.30;;;;;;5017463;28;20462;-88
2023/02/06 12:43:15;;;;;;;2.80;2.40;;;1.40;97.30;;;;;;5009525;28;20448;-87
2023/02/06 12:46:05;;;;;;;3.00;2.80;;;1.40;97.30;;;;;;5009244;28;20458;-88
2023/02/06 12:48:42;;;;;;;1.83;1.70;;;1.40;97.30;;;;;;5012419;28;20513;-89
2023/02/06 12:51:39;;;;;;;3.90;3.70;;;1.40;97.30;;;;;;5020791;28;20556;-88
2023/02/06 12:54:56;;;;;;;2.17;2.00;;;1.40;97.30;;;;;;5025183;28;20747;-88
2023/02/06 13:00:58;;;;;;;2.10;1.93;;;1.40;97.30;;;;;;5014414;28;20426;-87
2023/02/06 13:03:49;;;;;;;3.00;2.80;;;1.40;97.30;;;;;;5011473;28;20565;-88
2023/02/06 13:09:47;;;;;;;3.17;2.97;;;1.40;97.30;;;;;;5019084;28;20821;-85
2023/02/06 13:12:38;;;;;;;4.10;2.73;;;1.40;97.30;;;;;;5015799;28;20565;-87